This is the latest recevied weather packets stored in our database for station/object OK2ILA-13. If no packets are shown the sender has not sent any weather packets the latest 10 day(s).
| Time | Temp. | Humidity | Pressure | Rain* | Wind** | Luminosity | Snow |
|---|---|---|---|---|---|---|---|
| 1788596431 | 14.44° C | 77% | 1018.6 hPa | - | - | - | - |
| 1788595830 | 13.89° C | 81% | 1018.7 hPa | - | - | - | - |
| 1788595230 | 13.89° C | 81% | 1018.3 hPa | - | - | - | - |
| 1788594630 | 13.33° C | 84% | 1018.4 hPa | - | - | - | - |
| 1788594029 | 13.33° C | 85% | 1018.6 hPa | - | - | - | - |
| 1788593429 | 12.78° C | 87% | 1018.5 hPa | - | - | - | - |
| 1788592830 | 12.78° C | 88% | 1018.7 hPa | - | - | - | - |
| 1788592229 | 12.78° C | 88% | 1018.7 hPa | - | - | - | - |
| 1788591629 | 12.78° C | 87% | 1018.5 hPa | - | - | - | - |
| 1788591029 | 12.78° C | 87% | 1018.1 hPa | - | - | - | - |
| 1788590430 | 12.78° C | 87% | 1018.3 hPa | - | - | - | - |
| 1788589830 | 12.78° C | 86% | 1018.4 hPa | - | - | - | - |
| 1788589230 | 12.78° C | 86% | 1018.4 hPa | - | - | - | - |
| 1788588630 | 12.78° C | 85% | 1017.2 hPa | - | - | - | - |
| 1788586830 | 13.89° C | 74% | 1017.9 hPa | - | - | - | - |
| 1788586765 | 13.89° C | 74% | 1018 hPa | - | - | - | - |
| 1788585565 | 13.89° C | 69% | 1017.8 hPa | - | - | - | - |
| 1788565168 | 16.11° C | 69% | 1014 hPa | - | - | - | - |
| 1788557368 | 20° C | 55% | 1012.9 hPa | - | - | - | - |
| 1788554369 | 20.56° C | 54% | 1012.9 hPa | - | - | - | - |
| 1788553769 | 20.56° C | 53% | 1012.9 hPa | - | - | - | - |
| 1788553169 | 20.56° C | 54% | 1013 hPa | - | - | - | - |
| 1788552568 | 20.56° C | 54% | 1013 hPa | - | - | - | - |
| 1788550768 | 21.11° C | 52% | 1013.1 hPa | - | - | - | - |
| 1788550168 | 21.11° C | 52% | 1013.1 hPa | - | - | - | - |
* Rain since midnight (hover to see other rain measurements)
** Current wind speed in m/s (hover to see current wind gust speed)